Saturday, January 20, 2018, 8:20 AM EST
Back to Local

KFZY, Fulton Oswego County Airport

Location: Fulton, NY, United States Lat: 43.35
Local Time: 8:20 AM EST (13:20 GMT) Lon: -76.383
Time Zone: US/Eastern Elev: 475 ft

Show me the last for .
Show Decoded

2018-01-20 07:54 METAR KFZY 201254Z AUTO 23005KT 10SM CLR 02/M06 A2978 RMK AO2 SLP089 T00221056 =
2018-01-20 06:54 METAR KFZY 201154Z AUTO 23008KT 10SM CLR 02/M06 A2975 RMK AO2 SLP079 T00221061
                 10028 21022 53019 =
2018-01-20 05:54 METAR KFZY 201054Z AUTO 22008KT 10SM CLR 03/M06 A2973 RMK AO2 SLP071 T00281061 =
2018-01-20 04:54 METAR KFZY 200954Z AUTO 20008KT 10SM CLR 02/M07 A2970 RMK AO2 SLP062 T00221067 =
2018-01-20 03:54 METAR KFZY 200854Z AUTO 20007KT 10SM CLR 03/M06 A2969 RMK AO2 SLP060 T00281061
                 58004 =
2018-01-20 01:54 METAR KFZY 200654Z AUTO 18005KT 10SM CLR 01/M07 A2971 RMK AO2 SLP064 T00111067 =
2018-01-20 00:54 METAR KFZY 200554Z AUTO 00000KT 10SM CLR M02/M07 A2971 RMK AO2 SLP064 T10221067
                 11011 21028 58025 =
2018-01-19 23:54 METAR KFZY 200454Z AUTO 15003KT 10SM CLR M02/M07 A2973 RMK AO2 SLP075 T10171072
                 400111122 =
2018-01-19 22:54 METAR KFZY 200354Z AUTO 00000KT 10SM CLR M03/M07 A2976 RMK AO2 SLP083 T10281072
                 =
2018-01-19 21:54 METAR KFZY 200254Z AUTO 00000KT 10SM CLR M02/M07 A2978 RMK AO2 SLP091 T10171072
                 58018 =
2018-01-19 20:54 METAR KFZY 200154Z AUTO 16004KT 10SM CLR M02/M08 A2981 RMK AO2 SLP100 T10171083
                 =
2018-01-19 19:54 METAR KFZY 200054Z AUTO 13004KT 10SM CLR M02/M08 A2982 RMK AO2 SLP105 T10171083
                 =
2018-01-19 18:54 METAR KFZY 192354Z AUTO 14004KT 10SM CLR M01/M08 A2983 RMK AO2 SLP109 T10111083
                 10011 21022 58015 =
2018-01-19 17:54 METAR KFZY 192254Z AUTO 12003KT 10SM CLR M02/M08 A2986 RMK AO2 SLP118 T10171083
                 =
2018-01-19 16:54 METAR KFZY 192154Z AUTO 00000KT 10SM CLR M01/M08 A2986 RMK AO2 SLP118 T10111078
                 =
2018-01-19 15:54 METAR KFZY 192054Z AUTO 18007KT 10SM CLR 01/M08 A2988 RMK AO2 SLP125 T00061083
                 58007 =
2018-01-19 14:54 METAR KFZY 191954Z AUTO 19010KT 10SM CLR 01/M08 A2988 RMK AO2 SLP125 T00061078 =
2018-01-19 13:54 METAR KFZY 191854Z AUTO 26009KT 10SM CLR 01/M08 A2991 RMK AO2 SLP134 T00061078 =
2018-01-19 12:54 METAR KFZY 191754Z AUTO 21010KT 10SM FEW036 01/M07 A2990 RMK AO2 SLP132
                 T00061072 10006 21061 58016 =
2018-01-19 11:54 METAR KFZY 191654Z AUTO 24008KT 10SM OVC031 M01/M07 A2993 RMK AO2 SLP144
                 T10061072 =
2018-01-19 10:54 METAR KFZY 191554Z AUTO 22007KT 10SM OVC031 M02/M08 A2995 RMK AO2 SLP148
                 T10171078 =
2018-01-19 10:13 METAR KFZY 191513Z AUTO 21008KT 10SM OVC030 M02/M08 A2995 RMK AO2 T10221083 =
2018-01-19 09:54 METAR KFZY 191454Z AUTO 20006KT 10SM OVC028 M03/M08 A2995 RMK AO2 SLP149
                 T10281083 51002 =
2018-01-19 09:04 METAR KFZY 191404Z AUTO 17004KT 10SM OVC029 M04/M09 A2994 RMK AO2 T10441094 =
2018-01-19 08:54 METAR KFZY 191354Z AUTO 18004KT 10SM OVC030 M04/M09 A2995 RMK AO2 SLP147
                 T10441094 =

Support USWX by starting your Amazon purchase here.